createdAt,value
2018-11-14T00:00:44.110Z,6.60
2018-11-14T00:03:12.655Z,7.83
2018-11-14T00:05:41.146Z,5.83
2018-11-14T00:08:09.800Z,7.10
2018-11-14T00:10:38.396Z,6.90
2018-11-14T00:13:06.961Z,8.07
2018-11-14T00:15:35.476Z,7.60
2018-11-14T00:18:04.162Z,7.13
2018-11-14T00:20:32.715Z,7.60
2018-11-14T00:23:01.212Z,8.40
2018-11-14T00:25:29.747Z,7.90
2018-11-14T00:27:58.304Z,8.03
2018-11-14T00:30:27.081Z,7.40
2018-11-14T00:32:55.663Z,8.50
2018-11-14T00:35:24.203Z,8.73
2018-11-14T00:37:52.701Z,7.57
2018-11-14T00:40:21.835Z,8.10
2018-11-14T00:42:50.717Z,8.13
2018-11-14T00:45:20.531Z,8.53
2018-11-14T00:47:49.518Z,9.03
2018-11-14T00:50:18.654Z,8.47
2018-11-14T00:52:47.319Z,8.50
2018-11-14T00:55:18.315Z,8.93
2018-11-14T00:57:47.893Z,9.17
2018-11-14T01:00:22.520Z,8.37
2018-11-14T01:02:51.033Z,8.37
2018-11-14T01:05:19.789Z,8.53
2018-11-14T01:07:48.313Z,10.27
2018-11-14T01:10:18.204Z,8.77
2018-11-14T01:12:47.515Z,8.70
2018-11-14T01:15:17.636Z,8.67
2018-11-14T01:17:46.247Z,9.67
2018-11-14T01:20:16.022Z,8.87
2018-11-14T01:22:45.063Z,9.53
2018-11-14T01:25:14.603Z,9.47
2018-11-14T01:27:43.662Z,9.93
2018-11-14T01:30:15.374Z,9.23
2018-11-14T01:32:44.806Z,9.57
2018-11-14T01:35:13.465Z,9.90
2018-11-14T01:37:42.088Z,9.53
2018-11-14T01:40:16.797Z,9.47
2018-11-14T01:42:46.853Z,10.27
2018-11-14T01:45:15.370Z,9.20
2018-11-14T01:47:43.968Z,10.83
2018-11-14T01:50:12.600Z,10.50
2018-11-14T01:52:42.709Z,10.70
2018-11-14T01:55:19.591Z,10.90
2018-11-14T01:57:48.143Z,10.40
2018-11-14T02:00:18.830Z,9.63
2018-11-14T02:02:47.528Z,10.87
2018-11-14T02:05:16.575Z,10.23
2018-11-14T02:07:45.227Z,10.17
2018-11-14T02:10:15.521Z,11.70
2018-11-14T02:12:44.700Z,10.40
2018-11-14T02:15:16.484Z,10.40
2018-11-14T02:17:45.034Z,11.50
2018-11-14T02:20:13.834Z,11.27
2018-11-14T02:22:42.947Z,12.37
2018-11-14T02:25:12.166Z,11.70
2018-11-14T02:27:40.735Z,10.90
2018-11-14T02:30:11.290Z,11.73
2018-11-14T02:32:40.655Z,11.37
2018-11-14T02:35:09.702Z,13.17
2018-11-14T02:37:38.685Z,12.30
2018-11-14T02:40:09.540Z,13.20
2018-11-14T02:42:38.206Z,13.40
2018-11-14T02:45:07.001Z,13.80
2018-11-14T02:47:35.518Z,12.97
2018-11-14T02:50:04.092Z,12.60
2018-11-14T02:52:32.583Z,12.53
2018-11-14T02:55:01.096Z,13.10
2018-11-14T02:57:29.549Z,12.73
2018-11-14T02:59:58.071Z,12.97
2018-11-14T03:02:26.668Z,13.40
2018-11-14T03:04:55.460Z,14.07
2018-11-14T03:07:23.997Z,13.60
2018-11-14T03:09:52.872Z,14.37
2018-11-14T03:12:21.562Z,14.20
2018-11-14T03:14:49.992Z,14.50
2018-11-14T03:17:18.548Z,14.40
2018-11-14T03:19:47.014Z,13.93
2018-11-14T03:22:15.524Z,16.03
2018-11-14T03:24:44.023Z,15.83
2018-11-14T03:27:13.284Z,15.83
2018-11-14T03:29:41.751Z,15.67
2018-11-14T03:32:10.239Z,16.43
2018-11-14T03:34:38.828Z,16.87
2018-11-14T03:37:07.404Z,18.67
2018-11-14T03:39:35.871Z,20.17
2018-11-14T03:42:04.436Z,20.20
2018-11-14T03:44:32.937Z,18.90
2018-11-14T03:47:01.451Z,20.60
2018-11-14T03:49:29.912Z,20.93
2018-11-14T03:51:58.394Z,21.80
2018-11-14T03:54:26.877Z,22.60
2018-11-14T03:56:55.394Z,22.07
2018-11-14T03:59:23.870Z,23.00
2018-11-14T04:01:52.352Z,24.60
2018-11-14T04:04:20.830Z,24.07
2018-11-14T04:06:49.405Z,22.97
2018-11-14T04:09:17.991Z,25.70
2018-11-14T04:11:46.409Z,24.80
2018-11-14T04:14:14.880Z,27.97
2018-11-14T04:16:43.460Z,28.23
2018-11-14T04:19:11.941Z,28.33
2018-11-14T04:21:40.834Z,31.53
2018-11-14T04:24:09.307Z,30.20
2018-11-14T04:26:37.802Z,31.00
2018-11-14T04:29:06.352Z,29.63
2018-11-14T04:31:34.808Z,29.53
2018-11-14T04:34:03.343Z,30.27
2018-11-14T04:36:31.811Z,32.50
2018-11-14T04:39:00.317Z,29.90
2018-11-14T04:41:28.800Z,31.50
2018-11-14T04:43:57.264Z,32.20
2018-11-14T04:46:25.751Z,32.20
2018-11-14T04:48:54.254Z,31.53
2018-11-14T04:51:22.731Z,30.53
2018-11-14T04:53:51.260Z,31.13
2018-11-14T04:56:19.732Z,32.07
2018-11-14T04:58:48.221Z,31.30
2018-11-14T05:01:16.695Z,30.47
2018-11-14T05:03:45.202Z,32.27
2018-11-14T05:06:13.670Z,32.07
2018-11-14T05:08:42.178Z,32.37
2018-11-14T05:11:10.722Z,32.20
2018-11-14T05:13:39.342Z,32.27
2018-11-14T05:16:07.865Z,31.13
2018-11-14T05:18:36.440Z,32.87
2018-11-14T05:21:05.034Z,31.73
2018-11-14T05:23:33.511Z,31.87
2018-11-14T05:26:02.035Z,33.10
2018-11-14T05:28:31.774Z,32.70
2018-11-14T05:31:00.232Z,30.60
2018-11-14T05:33:28.844Z,30.40
2018-11-14T05:35:57.312Z,28.80
2018-11-14T05:38:25.803Z,29.37
2018-11-14T05:40:54.277Z,28.60
2018-11-14T05:43:22.778Z,28.27
2018-11-14T05:45:51.226Z,29.40
2018-11-14T05:48:19.704Z,28.20
2018-11-14T05:50:48.199Z,27.80
2018-11-14T05:53:16.704Z,26.27
2018-11-14T05:55:45.226Z,25.97
2018-11-14T05:58:13.729Z,26.97
2018-11-14T06:00:42.195Z,25.63
2018-11-14T06:03:10.672Z,26.13
2018-11-14T06:05:39.127Z,26.53
2018-11-14T06:08:07.630Z,25.83
2018-11-14T06:10:36.089Z,26.30
2018-11-14T06:13:04.749Z,26.20
2018-11-14T06:15:33.229Z,25.67
2018-11-14T06:18:01.833Z,26.07
2018-11-14T06:20:30.316Z,25.70
2018-11-14T06:22:58.798Z,25.17
2018-11-14T06:25:37.491Z,24.00
2018-11-14T06:28:07.296Z,24.70
2018-11-14T06:30:36.493Z,24.87
2018-11-14T06:33:06.282Z,23.27
2018-11-14T06:35:34.758Z,23.67
2018-11-14T06:38:03.280Z,24.70
2018-11-14T06:40:31.761Z,25.13
2018-11-14T06:43:00.290Z,22.57
2018-11-14T06:45:30.139Z,23.07
2018-11-14T06:47:59.784Z,24.40
2018-11-14T06:50:28.347Z,24.13
2018-11-14T06:52:59.184Z,22.77
2018-11-14T06:55:27.689Z,22.60
2018-11-14T06:57:56.166Z,22.20
2018-11-14T07:00:30.030Z,22.60
2018-11-14T07:02:59.279Z,22.67
2018-11-14T07:05:27.804Z,22.53
2018-11-14T07:07:56.264Z,23.37
2018-11-14T07:10:26.169Z,22.87
2018-11-14T07:12:58.832Z,22.43
2018-11-14T07:15:27.314Z,21.20
2018-11-14T07:17:55.885Z,21.63
2018-11-14T07:20:26.667Z,21.23
2018-11-14T07:22:55.191Z,21.60
2018-11-14T07:25:23.690Z,21.60
2018-11-14T07:27:52.166Z,22.47
2018-11-14T07:30:21.853Z,23.07
2018-11-14T07:32:52.162Z,21.97
2018-11-14T07:35:20.857Z,23.03
2018-11-14T07:38:28.849Z,22.87
2018-11-14T07:40:58.820Z,23.30
2018-11-14T07:43:27.367Z,21.97
2018-11-14T07:45:55.889Z,22.07
2018-11-14T07:48:24.352Z,22.90
2018-11-14T07:50:52.852Z,21.77
2018-11-14T07:53:21.486Z,23.10
2018-11-14T07:55:50.065Z,24.60
2018-11-14T07:58:18.615Z,23.77
2018-11-14T08:00:47.079Z,23.20
2018-11-14T08:03:15.562Z,25.20
2018-11-14T08:05:44.452Z,24.87
2018-11-14T08:08:13.021Z,22.93
2018-11-14T08:10:41.666Z,25.57
2018-11-14T08:13:10.230Z,25.03
2018-11-14T08:15:38.829Z,25.47
2018-11-14T08:18:07.496Z,24.50
2018-11-14T08:20:35.953Z,26.23
2018-11-14T08:23:04.507Z,24.23
2018-11-14T08:25:32.987Z,23.67
2018-11-14T08:28:01.499Z,24.10
2018-11-14T08:30:30.019Z,23.03
2018-11-14T08:32:58.538Z,23.87
2018-11-14T08:35:27.067Z,25.27
2018-11-14T08:37:55.552Z,25.70
2018-11-14T08:40:24.016Z,25.20
2018-11-14T08:42:52.516Z,24.00
2018-11-14T08:45:20.978Z,23.20
2018-11-14T08:47:49.526Z,24.63
2018-11-14T08:50:18.073Z,25.17
2018-11-14T08:52:46.584Z,22.33
2018-11-14T08:55:15.583Z,23.73
2018-11-14T08:57:45.374Z,23.93
2018-11-14T09:00:18.639Z,22.13
2018-11-14T09:02:47.529Z,21.30
2018-11-14T09:05:16.031Z,22.70
2018-11-14T09:07:44.692Z,19.97
2018-11-14T09:10:15.153Z,21.33
2018-11-14T09:12:44.106Z,20.30
2018-11-14T09:15:13.690Z,21.63
2018-11-14T09:17:42.426Z,20.50
2018-11-14T09:20:16.384Z,19.90
2018-11-14T09:22:45.074Z,21.73
2018-11-14T09:25:15.264Z,22.03
2018-11-14T09:27:44.632Z,20.93
2018-11-14T09:30:16.564Z,20.63
2018-11-14T09:32:45.050Z,19.60
2018-11-14T09:35:15.227Z,21.47
2018-11-14T09:37:44.142Z,21.50
2018-11-14T09:40:14.782Z,18.93
2018-11-14T09:42:43.650Z,18.17
2018-11-14T09:45:18.844Z,18.87
2018-11-14T09:47:47.976Z,19.77
2018-11-14T09:50:19.557Z,18.37
2018-11-14T09:52:50.679Z,18.50
2018-11-14T09:55:19.168Z,17.70
2018-11-14T09:57:47.680Z,18.07
2018-11-14T10:00:18.391Z,18.87
2018-11-14T10:02:50.443Z,18.03
2018-11-14T10:05:20.500Z,17.97
2018-11-14T10:07:49.076Z,18.40
2018-11-14T10:10:18.893Z,19.37
2018-11-14T10:12:47.411Z,18.83
2018-11-14T10:15:19.079Z,18.17
2018-11-14T10:17:48.021Z,18.70
2018-11-14T10:20:18.116Z,18.00
2018-11-14T10:22:46.939Z,17.67
2018-11-14T10:25:15.993Z,17.47
2018-11-14T10:27:45.236Z,16.63
2018-11-14T10:30:16.163Z,17.67
2018-11-14T10:32:45.467Z,17.80
2018-11-14T10:35:13.900Z,18.17
2018-11-14T10:37:42.552Z,17.83
2018-11-14T10:40:16.469Z,17.40
2018-11-14T10:42:45.281Z,17.03
2018-11-14T10:45:15.254Z,16.40
2018-11-14T10:47:43.866Z,16.70
2018-11-14T10:50:15.607Z,17.87
2018-11-14T10:52:44.116Z,18.27
2018-11-14T10:55:13.471Z,18.07
2018-11-14T10:57:42.002Z,17.40
2018-11-14T11:00:20.020Z,17.70
2018-11-14T11:02:53.833Z,18.30
2018-11-14T11:05:29.515Z,19.77
2018-11-14T11:08:03.384Z,20.87
2018-11-14T11:11:37.519Z,19.77
2018-11-14T11:14:11.223Z,19.73
2018-11-14T11:16:44.993Z,19.67
2018-11-14T11:19:14.164Z,21.40
2018-11-14T11:21:42.916Z,20.10
2018-11-14T11:24:11.853Z,19.87
2018-11-14T11:26:40.338Z,19.87
2018-11-14T11:29:10.148Z,21.27
2018-11-14T11:31:38.774Z,21.67
2018-11-14T11:34:08.286Z,22.07
2018-11-14T11:36:36.870Z,21.83
2018-11-14T11:39:08.646Z,22.67
2018-11-14T11:41:37.205Z,22.37
2018-11-14T11:44:05.966Z,21.97
2018-11-14T11:46:34.495Z,23.27
2018-11-14T11:49:03.077Z,23.80
2018-11-14T11:51:31.573Z,23.87
2018-11-14T11:54:00.090Z,23.83
2018-11-14T11:56:28.616Z,22.90
2018-11-14T11:58:57.137Z,22.13
2018-11-14T12:01:25.652Z,22.93
2018-11-14T12:03:54.127Z,22.93
2018-11-14T12:06:22.661Z,23.37
2018-11-14T12:08:51.175Z,22.73
2018-11-14T12:11:19.684Z,22.30
2018-11-14T12:13:48.216Z,23.47
2018-11-14T12:16:17.976Z,23.37
2018-11-14T12:18:46.514Z,23.43
2018-11-14T12:21:15.019Z,25.43
2018-11-14T12:23:43.636Z,24.37
2018-11-14T12:26:12.039Z,25.47
2018-11-14T12:28:40.558Z,26.47
2018-11-14T12:31:09.213Z,25.40
2018-11-14T12:33:37.588Z,26.03
2018-11-14T12:36:06.646Z,25.77
2018-11-14T12:38:35.207Z,27.53
2018-11-14T12:41:03.742Z,24.07
2018-11-14T12:43:32.230Z,25.57
2018-11-14T12:46:00.735Z,23.60
2018-11-14T12:48:29.270Z,25.07
2018-11-14T12:50:57.764Z,22.67
2018-11-14T12:53:26.295Z,22.97
2018-11-14T12:55:54.810Z,23.97
2018-11-14T12:58:23.379Z,25.07
2018-11-14T13:00:51.861Z,24.87
2018-11-14T13:03:20.434Z,25.20
2018-11-14T13:05:49.194Z,22.70
2018-11-14T13:08:18.135Z,23.70
2018-11-14T13:10:46.668Z,24.10
2018-11-14T13:13:15.165Z,23.87
2018-11-14T13:15:43.671Z,22.17
2018-11-14T13:18:12.174Z,22.83
2018-11-14T13:20:40.661Z,22.77
2018-11-14T13:23:09.159Z,22.67
2018-11-14T13:25:37.697Z,22.83
2018-11-14T13:28:06.201Z,23.73
2018-11-14T13:30:34.734Z,22.53
2018-11-14T13:33:03.216Z,20.47
2018-11-14T13:35:31.718Z,20.20
2018-11-14T13:38:00.166Z,20.50
2018-11-14T13:40:28.675Z,19.80
2018-11-14T13:42:57.304Z,20.33
2018-11-14T13:45:25.792Z,19.60
2018-11-14T13:47:54.273Z,20.20
2018-11-14T13:50:23.248Z,19.17
2018-11-14T13:52:51.642Z,18.40
2018-11-14T13:55:21.031Z,18.17
2018-11-14T13:57:50.700Z,16.53
2018-11-14T14:00:20.570Z,15.90
2018-11-14T14:02:49.949Z,16.50
2018-11-14T14:05:21.554Z,16.40
2018-11-14T14:07:50.038Z,15.97
2018-11-14T14:10:18.870Z,14.17
2018-11-14T14:12:48.713Z,14.93
2018-11-14T14:15:18.738Z,14.97
2018-11-14T14:17:47.939Z,14.40
2018-11-14T14:20:17.214Z,13.13
2018-11-14T14:22:45.764Z,11.93
2018-11-14T14:25:15.520Z,12.73
2018-11-14T14:27:44.126Z,11.17
2018-11-14T14:30:14.119Z,11.77
2018-11-14T14:32:43.458Z,11.67
2018-11-14T14:35:12.823Z,11.03
2018-11-14T14:37:41.499Z,12.20
2018-11-14T14:40:12.387Z,11.37
2018-11-14T14:42:40.919Z,11.07
2018-11-14T14:45:10.566Z,12.65
2018-11-14T14:47:39.094Z,12.70
2018-11-14T14:50:09.658Z,10.87
2018-11-14T14:52:39.017Z,10.67
2018-11-14T14:55:09.360Z,11.30
2018-11-14T14:57:39.186Z,10.23
2018-11-14T15:00:13.731Z,10.10
2018-11-14T15:02:42.583Z,10.17
2018-11-14T15:05:12.266Z,10.03
2018-11-14T15:07:41.054Z,10.83
2018-11-14T15:10:12.534Z,9.97
2018-11-14T15:12:41.121Z,9.83
2018-11-14T15:15:09.677Z,10.00
2018-11-14T15:17:38.206Z,9.37
2018-11-14T15:20:09.835Z,9.50
2018-11-14T15:22:38.415Z,9.60
2018-11-14T15:28:21.487Z,9.57
2018-11-14T15:30:50.019Z,8.97
2018-11-14T15:33:18.616Z,10.10
2018-11-14T15:35:47.196Z,8.77
2018-11-14T15:38:15.733Z,8.47
2018-11-14T15:40:44.319Z,9.13
2018-11-14T15:43:12.796Z,9.13
2018-11-14T15:45:41.334Z,8.93
2018-11-14T15:48:09.853Z,8.43
2018-11-14T15:50:38.346Z,8.53
2018-11-14T15:53:06.876Z,7.73
2018-11-14T15:55:35.393Z,8.13
2018-11-14T15:58:04.009Z,8.33
2018-11-14T16:00:33.768Z,8.43
2018-11-14T16:03:02.288Z,7.47
2018-11-14T16:05:32.017Z,8.90
2018-11-14T16:08:01.531Z,8.37
2018-11-14T16:10:31.039Z,8.57
2018-11-14T16:12:59.557Z,8.43
2018-11-14T16:15:31.380Z,7.70
2018-11-14T16:17:59.936Z,7.90
2018-11-14T16:20:28.557Z,7.43
2018-11-14T16:22:57.604Z,8.47
2018-11-14T16:25:27.731Z,7.93
2018-11-14T16:27:57.576Z,8.27
2018-11-14T16:30:29.181Z,7.90
2018-11-14T16:32:58.852Z,8.13
2018-11-14T16:35:27.473Z,6.90
2018-11-14T16:37:56.047Z,7.67
2018-11-14T16:40:25.833Z,6.50
2018-11-14T16:42:55.250Z,6.83
2018-11-14T16:45:23.781Z,6.80
2018-11-14T16:47:52.250Z,7.87
2018-11-14T16:50:21.849Z,6.83
2018-11-14T16:52:50.530Z,6.37
2018-11-14T16:55:20.033Z,6.70
2018-11-14T16:57:49.276Z,7.27
2018-11-14T17:00:19.987Z,6.97
2018-11-14T17:02:48.543Z,6.90
2018-11-14T17:05:17.259Z,6.13
2018-11-14T17:07:45.785Z,5.63
2018-11-14T17:10:15.395Z,5.17
2018-11-14T17:12:44.849Z,5.57
2018-11-14T17:15:14.766Z,5.33
2018-11-14T17:17:43.290Z,5.50
2018-11-14T17:20:13.068Z,6.07
2018-11-14T17:22:42.227Z,5.17
2018-11-14T17:25:11.575Z,4.90
2018-11-14T17:27:40.103Z,5.00
2018-11-14T17:30:11.022Z,5.00
2018-11-14T17:32:39.539Z,5.43
2018-11-14T17:35:09.217Z,4.97
2018-11-14T17:37:38.399Z,5.50
2018-11-14T17:40:11.034Z,5.00
2018-11-14T17:42:39.982Z,4.80
2018-11-14T17:45:10.608Z,5.00
2018-11-14T17:47:39.293Z,5.13
2018-11-14T17:50:11.660Z,4.80
2018-11-14T17:52:40.121Z,4.87
2018-11-14T17:55:10.446Z,5.03
2018-11-14T17:57:38.951Z,5.03
2018-11-14T18:00:10.014Z,4.80
2018-11-14T18:02:38.743Z,4.43
2018-11-14T18:05:09.116Z,4.37
2018-11-14T18:07:37.927Z,4.50
2018-11-14T18:10:08.039Z,4.70
2018-11-14T18:12:41.217Z,4.73
2018-11-14T18:15:10.682Z,4.67
2018-11-14T18:17:39.955Z,5.87
2018-11-14T18:20:11.160Z,5.13
2018-11-14T18:22:40.304Z,5.43
2018-11-14T18:25:09.343Z,5.10
2018-11-14T18:27:38.087Z,5.30
2018-11-14T18:30:09.477Z,5.43
2018-11-14T18:32:38.064Z,5.17
2018-11-14T18:35:08.692Z,5.70
2018-11-14T18:37:37.293Z,5.23
2018-11-14T18:40:07.333Z,5.53
2018-11-14T18:42:35.828Z,4.87
2018-11-14T18:45:04.394Z,5.47
2018-11-14T18:47:32.899Z,6.60
2018-11-14T18:50:01.392Z,6.80
2018-11-14T18:52:29.920Z,6.17
2018-11-14T18:54:58.443Z,5.73
2018-11-14T18:57:26.904Z,5.73
2018-11-14T18:59:55.451Z,5.47
2018-11-14T19:02:23.908Z,5.30
2018-11-14T19:04:52.443Z,5.73
2018-11-14T19:07:20.983Z,5.17
2018-11-14T19:09:49.448Z,5.30
2018-11-14T19:12:18.043Z,5.23
2018-11-14T19:14:46.545Z,4.97
2018-11-14T19:17:15.079Z,4.70
2018-11-14T19:19:43.659Z,4.70
2018-11-14T19:22:12.157Z,4.90
2018-11-14T19:24:40.804Z,4.73
2018-11-14T19:27:10.993Z,7.03
2018-11-14T19:29:39.471Z,4.80
2018-11-14T19:32:08.576Z,4.97
2018-11-14T19:34:37.133Z,4.67
2018-11-14T19:37:05.725Z,4.83
2018-11-14T19:39:34.384Z,4.57
2018-11-14T19:42:02.979Z,4.67
2018-11-14T19:44:31.505Z,4.80
2018-11-14T19:47:00.038Z,4.93
2018-11-14T19:49:28.618Z,4.80
2018-11-14T19:51:57.081Z,4.33
2018-11-14T19:54:25.572Z,4.90
2018-11-14T19:56:54.109Z,4.70
2018-11-14T19:59:22.642Z,4.20
2018-11-14T20:01:51.300Z,4.83
2018-11-14T20:04:19.785Z,5.10
2018-11-14T20:06:48.288Z,6.20
2018-11-14T20:09:16.766Z,4.97
2018-11-14T20:11:45.271Z,4.97
2018-11-14T20:14:13.749Z,4.73
2018-11-14T20:16:42.442Z,4.87
2018-11-14T20:19:10.958Z,5.00
2018-11-14T20:21:39.452Z,4.87
2018-11-14T20:24:07.930Z,5.43
2018-11-14T20:26:36.382Z,5.13
2018-11-14T20:29:04.921Z,4.83
2018-11-14T20:31:33.422Z,4.70
2018-11-14T20:34:02.269Z,5.30
2018-11-14T20:36:30.784Z,4.80
2018-11-14T20:38:59.670Z,5.40
2018-11-14T20:41:28.165Z,5.50
2018-11-14T20:43:56.644Z,4.47
2018-11-14T20:46:26.001Z,4.90
2018-11-14T20:48:54.558Z,4.63
2018-11-14T20:51:23.904Z,4.40
2018-11-14T20:53:52.382Z,4.53
2018-11-14T20:56:20.895Z,4.60
2018-11-14T20:58:49.375Z,4.57
2018-11-14T21:01:17.874Z,4.77
2018-11-14T21:03:46.378Z,5.70
2018-11-14T21:06:14.882Z,5.50
2018-11-14T21:08:43.381Z,5.23
2018-11-14T21:11:11.824Z,4.57
2018-11-14T21:13:40.344Z,4.63
2018-11-14T21:16:08.934Z,4.80
2018-11-14T21:18:37.499Z,4.23
2018-11-14T21:21:05.989Z,4.20
2018-11-14T21:23:34.466Z,4.57
2018-11-14T21:26:02.919Z,4.70
2018-11-14T21:28:31.413Z,4.13
2018-11-14T21:30:59.842Z,5.10
2018-11-14T21:33:28.346Z,4.87
2018-11-14T21:35:56.846Z,5.23
2018-11-14T21:38:25.377Z,5.13
2018-11-14T21:40:53.806Z,5.43
2018-11-14T21:43:22.753Z,6.17
2018-11-14T21:45:51.479Z,5.30
2018-11-14T21:48:20.093Z,5.47
2018-11-14T21:50:48.647Z,5.33
2018-11-14T21:53:17.299Z,5.13
2018-11-14T21:55:45.757Z,4.73
2018-11-14T21:58:14.536Z,4.70
2018-11-14T22:00:42.974Z,4.77
2018-11-14T22:03:12.522Z,5.40
2018-11-14T22:05:41.099Z,5.37
2018-11-14T22:08:09.638Z,5.17
2018-11-14T22:10:38.146Z,4.80
2018-11-14T22:13:06.674Z,5.10
2018-11-14T22:15:35.238Z,5.07
2018-11-14T22:18:03.838Z,5.23
2018-11-14T22:20:32.343Z,5.23
2018-11-14T22:23:00.939Z,5.73
2018-11-14T22:25:30.166Z,4.90
2018-11-14T22:28:01.684Z,5.00
2018-11-14T22:30:32.975Z,4.47
2018-11-14T22:33:01.509Z,5.57
2018-11-14T22:35:31.297Z,5.13
2018-11-14T22:37:59.776Z,6.10
2018-11-14T22:40:29.562Z,5.30
2018-11-14T22:42:58.476Z,5.83
2018-11-14T22:45:31.127Z,5.40
2018-11-14T22:47:59.741Z,5.00
2018-11-14T22:50:28.395Z,5.10
2018-11-14T22:52:56.901Z,5.83
2018-11-14T22:55:26.080Z,5.17
2018-11-14T22:57:54.843Z,5.23
2018-11-14T23:00:26.642Z,5.70
2018-11-14T23:02:56.572Z,5.10
2018-11-14T23:05:25.110Z,5.37
2018-11-14T23:07:54.357Z,5.27
2018-11-14T23:10:23.761Z,5.97
2018-11-14T23:12:52.550Z,5.50
2018-11-14T23:15:21.847Z,5.37
2018-11-14T23:17:50.442Z,5.93
2018-11-14T23:20:19.197Z,5.63
2018-11-14T23:22:48.436Z,6.23
2018-11-14T23:25:17.322Z,6.43
2018-11-14T23:27:47.224Z,5.70
2018-11-14T23:30:16.838Z,6.00
2018-11-14T23:32:47.064Z,5.70
2018-11-14T23:35:23.532Z,5.93
2018-11-14T23:37:53.492Z,5.37
2018-11-14T23:40:22.102Z,6.40
2018-11-14T23:42:50.961Z,6.30
2018-11-14T23:45:20.511Z,6.00
2018-11-14T23:47:49.678Z,6.47
2018-11-14T23:50:21.526Z,5.97
2018-11-14T23:52:51.419Z,6.33
2018-11-14T23:55:20.655Z,6.10
2018-11-14T23:57:49.285Z,5.60
